Terminal Aerodrome Forecast
Issued by NWS Springfield, MO

Home | Current Version | Previous Version | Text Only | Print | Product List | Glossary On
Versions: 1 2 3 4 5 6 7 8 9 10 11 12 13 14 15 16 17 18
000
FTUS43 KSGF 281500 AAB
TAFSGF
TAF AMD
KSGF 281538Z 2816/0112 14012KT 2SM -SN OVC025
      TEMPO 2816/2817 1SM -SN BR OVC015
     FM281700 14007KT 1SM -SN BR OVC007
      TEMPO 2818/2822 1/4SM +SN FG OVC005
     FM282300 15006KT 1SM -SN BR OVC003=

USA.gov is the U.S. government's official web portal to all federal, state and local government web resources and services.